createdAt,value
2023-02-27T00:01:06.946Z,0.90
2023-02-27T00:03:35.179Z,0.90
2023-02-27T00:06:05.296Z,0.90
2023-02-27T00:08:33.740Z,0.90
2023-02-27T00:11:01.711Z,0.90
2023-02-27T00:13:29.797Z,0.90
2023-02-27T00:15:59.177Z,0.90
2023-02-27T00:18:27.170Z,0.90
2023-02-27T00:20:55.299Z,0.90
2023-02-27T00:23:23.269Z,0.90
2023-02-27T00:25:52.209Z,0.90
2023-02-27T00:28:20.225Z,0.80
2023-02-27T00:30:48.256Z,0.90
2023-02-27T00:33:17.608Z,0.90
2023-02-27T00:35:47.218Z,0.90
2023-02-27T00:38:15.200Z,0.80
2023-02-27T00:40:43.191Z,0.90
2023-02-27T00:43:11.488Z,0.90
2023-02-27T00:45:39.502Z,0.90
2023-02-27T00:48:07.447Z,0.80
2023-02-27T00:50:36.790Z,0.80
2023-02-27T00:53:04.772Z,0.80
2023-02-27T00:55:33.299Z,0.80
2023-02-27T00:58:01.565Z,0.80
2023-02-27T01:00:29.982Z,0.80
2023-02-27T01:02:58.095Z,0.80
2023-02-27T01:05:26.218Z,0.80
2023-02-27T01:07:55.651Z,0.80
2023-02-27T01:10:23.870Z,0.80
2023-02-27T01:12:52.072Z,0.80
2023-02-27T01:15:21.528Z,0.80
2023-02-27T01:17:49.570Z,0.70
2023-02-27T01:20:17.773Z,0.70
2023-02-27T01:22:45.726Z,0.80
2023-02-27T01:25:15.071Z,0.70
2023-02-27T01:27:43.056Z,0.70
2023-02-27T01:30:14.612Z,0.70
2023-02-27T01:32:42.750Z,0.70
2023-02-27T01:35:11.118Z,0.70
2023-02-27T01:37:39.121Z,0.70
2023-02-27T01:40:08.906Z,0.70
2023-02-27T01:42:38.449Z,0.70
2023-02-27T01:45:26.937Z,0.70
2023-02-27T01:48:00.919Z,0.60
2023-02-27T01:50:29.150Z,0.70
2023-02-27T01:53:01.868Z,0.60
2023-02-27T01:55:32.562Z,0.60
2023-02-27T01:58:02.154Z,0.60
2023-02-27T02:00:30.132Z,0.70
2023-02-27T02:03:03.543Z,0.70
2023-02-27T02:05:32.082Z,0.70
2023-02-27T02:08:00.567Z,0.70
2023-02-27T02:10:29.455Z,0.60
2023-02-27T02:12:58.021Z,0.70
2023-02-27T02:15:33.023Z,0.70
2023-02-27T02:18:11.963Z,0.60
2023-02-27T02:21:12.830Z,0.60
2023-02-27T02:24:11.370Z,0.60
2023-02-27T02:26:52.158Z,0.60
2023-02-27T02:29:53.951Z,0.60
2023-02-27T02:33:04.754Z,0.60
2023-02-27T02:36:04.815Z,0.60
2023-02-27T02:39:06.411Z,0.50
2023-02-27T02:41:45.716Z,0.50
2023-02-27T02:44:21.129Z,0.50
2023-02-27T02:46:58.560Z,0.50
2023-02-27T02:49:32.553Z,0.50
2023-02-27T02:52:05.087Z,0.50
2023-02-27T02:54:41.003Z,0.50
2023-02-27T02:57:14.829Z,0.50
2023-02-27T02:59:49.477Z,0.40
2023-02-27T03:02:21.239Z,0.40
2023-02-27T03:04:54.561Z,0.40
2023-02-27T03:07:28.350Z,0.40
2023-02-27T03:10:05.044Z,0.30
2023-02-27T03:12:35.188Z,0.30
2023-02-27T03:15:07.842Z,0.30
2023-02-27T03:17:46.704Z,0.30
2023-02-27T03:20:20.221Z,0.20
2023-02-27T03:22:51.242Z,0.20
2023-02-27T03:25:22.866Z,0.20
2023-02-27T03:27:55.130Z,0.20
2023-02-27T03:30:33.077Z,0.20
2023-02-27T03:33:08.742Z,0.20
2023-02-27T03:35:45.393Z,0.20
2023-02-27T03:38:21.612Z,0.20
2023-02-27T03:40:57.154Z,0.20
2023-02-27T03:43:31.920Z,0.20
2023-02-27T03:46:08.308Z,0.20
2023-02-27T03:48:36.583Z,0.20
2023-02-27T03:51:05.089Z,0.20
2023-02-27T03:53:38.469Z,0.20
2023-02-27T03:56:10.105Z,0.20
2023-02-27T03:58:38.366Z,0.20
2023-02-27T04:01:06.512Z,0.20
2023-02-27T04:03:40.505Z,0.20
2023-02-27T04:06:23.094Z,0.20
2023-02-27T04:09:00.817Z,0.30
2023-02-27T04:11:53.441Z,0.30
2023-02-27T04:14:37.346Z,0.30
2023-02-27T04:17:19.234Z,0.30
2023-02-27T04:20:07.202Z,0.30
2023-02-27T04:22:39.307Z,0.30
2023-02-27T04:25:26.024Z,0.30
2023-02-27T04:27:59.569Z,0.30
2023-02-27T04:30:33.353Z,0.30
2023-02-27T04:33:10.264Z,0.30
2023-02-27T04:35:43.775Z,0.30
2023-02-27T04:38:18.299Z,0.40
2023-02-27T04:40:50.606Z,0.40
2023-02-27T04:43:23.058Z,0.40
2023-02-27T04:45:52.495Z,0.40
2023-02-27T04:48:25.333Z,0.40
2023-02-27T04:50:56.080Z,0.40
2023-02-27T04:53:27.360Z,0.40
2023-02-27T04:55:58.176Z,0.40
2023-02-27T04:58:30.726Z,0.40
2023-02-27T05:01:03.632Z,0.40
2023-02-27T05:03:35.434Z,0.40
2023-02-27T05:06:06.252Z,0.40
2023-02-27T05:08:40.350Z,0.40
2023-02-27T05:11:15.015Z,0.40
2023-02-27T05:13:50.439Z,0.50
2023-02-27T05:16:24.044Z,0.50
2023-02-27T05:18:52.417Z,0.50
2023-02-27T05:21:27.610Z,0.50
2023-02-27T05:24:05.273Z,0.50
2023-02-27T05:26:48.969Z,0.50
2023-02-27T05:29:25.505Z,0.50
2023-02-27T05:31:57.987Z,0.40
2023-02-27T05:34:30.921Z,0.50
2023-02-27T05:37:04.534Z,0.50
2023-02-27T05:39:36.146Z,0.40
2023-02-27T05:42:08.924Z,0.40
2023-02-27T05:44:43.047Z,0.50
2023-02-27T05:47:14.658Z,0.50
2023-02-27T05:49:46.214Z,0.50
2023-02-27T05:52:18.916Z,0.50
2023-02-27T05:54:53.724Z,0.50
2023-02-27T05:57:30.318Z,0.50
2023-02-27T06:00:07.098Z,0.50
2023-02-27T06:02:35.173Z,0.50
2023-02-27T06:05:03.703Z,0.50
2023-02-27T06:07:32.967Z,0.50
2023-02-27T06:10:01.122Z,0.50
2023-02-27T06:12:29.137Z,0.50
2023-02-27T06:14:57.123Z,0.60
2023-02-27T06:17:27.506Z,0.50
2023-02-27T06:19:55.979Z,0.50
2023-02-27T06:22:27.984Z,0.60
2023-02-27T06:24:56.030Z,0.60
2023-02-27T06:27:26.095Z,0.50
2023-02-27T06:29:54.611Z,0.50
2023-02-27T06:32:25.208Z,0.50
2023-02-27T06:34:54.582Z,0.50
2023-02-27T06:37:22.864Z,0.50
2023-02-27T06:39:50.840Z,0.60
2023-02-27T06:42:19.261Z,0.60
2023-02-27T06:44:47.238Z,0.60
2023-02-27T06:47:15.207Z,0.60
2023-02-27T06:49:43.203Z,0.60
2023-02-27T06:52:12.577Z,0.60
2023-02-27T06:54:42.100Z,0.60
2023-02-27T07:00:24.937Z,0.70
2023-02-27T07:02:53.242Z,0.70
2023-02-27T07:05:21.546Z,0.70
2023-02-27T07:07:49.561Z,0.70
2023-02-27T07:10:17.733Z,0.80
2023-02-27T07:12:48.330Z,0.80
2023-02-27T07:15:16.297Z,0.80
2023-02-27T07:17:48.738Z,0.80
2023-02-27T07:20:16.831Z,0.80
2023-02-27T07:22:44.780Z,0.90
2023-02-27T07:25:12.773Z,0.90
2023-02-27T07:27:40.845Z,1.00
2023-02-27T07:30:10.147Z,1.00
2023-02-27T07:32:39.389Z,1.00
2023-02-27T07:35:10.510Z,1.10
2023-02-27T07:37:41.073Z,1.10
2023-02-27T07:40:10.140Z,1.20
2023-02-27T07:42:38.327Z,1.20
2023-02-27T07:45:10.528Z,1.20
2023-02-27T07:47:38.516Z,1.30
2023-02-27T07:50:09.187Z,1.40
2023-02-27T07:52:37.184Z,1.40
2023-02-27T07:55:05.383Z,1.40
2023-02-27T07:57:33.371Z,1.50
2023-02-27T08:00:01.371Z,1.50
2023-02-27T08:02:29.347Z,1.50
2023-02-27T08:04:57.414Z,1.60
2023-02-27T08:07:27.046Z,1.60
2023-02-27T08:09:55.030Z,1.70
2023-02-27T08:12:23.224Z,1.70
2023-02-27T08:14:51.208Z,1.70
2023-02-27T08:17:19.194Z,1.70
2023-02-27T08:19:47.157Z,1.80
2023-02-27T08:22:15.243Z,1.80
2023-02-27T08:24:44.616Z,1.90
2023-02-27T08:27:12.601Z,1.90
2023-02-27T08:29:40.567Z,1.90
2023-02-27T08:32:08.616Z,2.00
2023-02-27T08:34:36.852Z,2.10
2023-02-27T08:37:04.896Z,2.20
2023-02-27T08:39:32.844Z,2.30
2023-02-27T08:42:02.204Z,2.40
2023-02-27T08:44:30.399Z,2.60
2023-02-27T08:46:58.373Z,2.60
2023-02-27T08:49:27.387Z,2.70
2023-02-27T08:51:55.413Z,2.80
2023-02-27T08:54:25.808Z,3.00
2023-02-27T08:56:53.827Z,3.10
2023-02-27T08:59:23.234Z,3.30
2023-02-27T09:01:51.191Z,3.30
2023-02-27T09:04:19.151Z,3.50
2023-02-27T09:06:48.064Z,3.50
2023-02-27T09:09:16.094Z,3.40
2023-02-27T09:11:46.746Z,3.40
2023-02-27T09:14:14.747Z,3.50
2023-02-27T09:16:44.137Z,3.60
2023-02-27T09:19:12.334Z,3.60
2023-02-27T09:21:40.303Z,3.70
2023-02-27T09:24:19.343Z,3.60
2023-02-27T09:26:48.485Z,3.50
2023-02-27T09:29:16.686Z,3.60
2023-02-27T09:31:47.198Z,3.60
2023-02-27T09:34:15.300Z,3.50
2023-02-27T09:36:43.333Z,3.50
2023-02-27T09:39:11.712Z,3.50
2023-02-27T09:41:48.964Z,3.50
2023-02-27T09:44:39.769Z,3.50
2023-02-27T09:47:14.403Z,3.50
2023-02-27T09:49:52.627Z,3.50
2023-02-27T09:52:20.682Z,3.60
2023-02-27T09:54:50.802Z,3.50
2023-02-27T09:57:28.858Z,3.50
2023-02-27T10:00:00.939Z,3.50
2023-02-27T10:02:45.279Z,3.50
2023-02-27T10:05:24.756Z,3.40
2023-02-27T10:08:02.182Z,3.50
2023-02-27T10:10:37.022Z,3.50
2023-02-27T10:13:26.706Z,3.50
2023-02-27T10:15:55.940Z,3.60
2023-02-27T10:18:31.008Z,3.50
2023-02-27T10:21:01.593Z,3.50
2023-02-27T10:23:36.926Z,3.40
2023-02-27T10:26:08.474Z,3.40
2023-02-27T10:28:37.748Z,3.40
2023-02-27T10:31:17.639Z,3.30
2023-02-27T10:33:49.069Z,3.30
2023-02-27T10:36:32.656Z,3.20
2023-02-27T10:39:08.139Z,3.10
2023-02-27T10:41:37.376Z,3.00
2023-02-27T10:44:06.044Z,3.00
2023-02-27T10:46:38.095Z,3.00
2023-02-27T10:49:18.884Z,3.00
2023-02-27T10:51:47.994Z,3.00
2023-02-27T10:54:21.879Z,3.00
2023-02-27T10:56:52.211Z,2.90
2023-02-27T10:59:25.988Z,2.90
2023-02-27T11:01:57.312Z,2.80
2023-02-27T11:04:30.559Z,2.90
2023-02-27T11:07:00.154Z,2.80
2023-02-27T11:09:29.936Z,2.80
2023-02-27T11:12:13.060Z,2.80
2023-02-27T11:14:50.902Z,2.80
2023-02-27T11:17:27.943Z,2.80
2023-02-27T11:19:57.732Z,2.80
2023-02-27T11:22:27.945Z,2.80
2023-02-27T11:25:21.806Z,2.70
2023-02-27T11:27:51.976Z,2.70
2023-02-27T11:30:27.027Z,2.80
2023-02-27T11:32:57.203Z,2.90
2023-02-27T11:35:31.102Z,2.90
2023-02-27T11:38:02.450Z,3.00
2023-02-27T11:40:33.757Z,3.00
2023-02-27T11:43:05.863Z,3.10
2023-02-27T11:46:13.911Z,3.10
2023-02-27T11:48:28.668Z,3.10
2023-02-27T11:51:26.232Z,3.10
2023-02-27T11:54:15.727Z,3.10
2023-02-27T11:56:47.412Z,3.10
2023-02-27T11:59:41.013Z,3.20
2023-02-27T12:02:18.953Z,3.20
2023-02-27T12:04:53.017Z,3.20
2023-02-27T12:07:27.366Z,3.20
2023-02-27T12:10:05.012Z,3.20
2023-02-27T12:12:38.469Z,3.20
2023-02-27T12:15:18.890Z,3.20
2023-02-27T12:17:51.185Z,3.30
2023-02-27T12:20:30.624Z,3.40
2023-02-27T12:23:03.178Z,3.40
2023-02-27T12:25:42.880Z,3.50
2023-02-27T12:28:23.845Z,3.50
2023-02-27T12:31:01.645Z,3.50
2023-02-27T12:33:38.624Z,3.50
2023-02-27T12:36:12.641Z,3.50
2023-02-27T12:38:42.468Z,3.50
2023-02-27T12:41:33.739Z,3.40
2023-02-27T12:44:15.236Z,3.40
2023-02-27T12:46:49.820Z,3.30
2023-02-27T12:49:28.100Z,3.30
2023-02-27T12:52:07.432Z,3.20
2023-02-27T12:54:47.883Z,3.20
2023-02-27T12:57:47.391Z,3.20
2023-02-27T13:00:18.847Z,3.20
2023-02-27T13:03:06.996Z,3.10
2023-02-27T13:05:42.882Z,3.10
2023-02-27T13:08:21.262Z,3.10
2023-02-27T13:10:58.247Z,3.10
2023-02-27T13:13:32.148Z,3.10
2023-02-27T13:16:05.681Z,3.10
2023-02-27T13:18:40.017Z,3.00
2023-02-27T13:21:13.825Z,3.00
2023-02-27T13:23:50.863Z,3.00
2023-02-27T13:26:25.174Z,3.00
2023-02-27T13:28:54.738Z,3.00
2023-02-27T13:31:31.510Z,3.00
2023-02-27T13:34:08.974Z,3.00
2023-02-27T13:36:42.166Z,3.00
2023-02-27T13:39:46.329Z,3.00
2023-02-27T13:42:51.727Z,3.00
2023-02-27T13:45:50.635Z,3.10
2023-02-27T13:48:41.135Z,3.10
2023-02-27T13:51:48.546Z,3.10
2023-02-27T13:54:28.476Z,3.00
2023-02-27T13:57:19.501Z,3.10
2023-02-27T13:59:54.905Z,3.10
2023-02-27T14:02:34.733Z,3.20
2023-02-27T14:05:06.188Z,3.20
2023-02-27T14:07:50.093Z,3.30
2023-02-27T14:10:25.474Z,3.30
2023-02-27T14:12:54.243Z,3.30
2023-02-27T14:15:50.119Z,3.30
2023-02-27T14:18:56.019Z,3.30
2023-02-27T14:22:00.303Z,3.30
2023-02-27T14:24:49.672Z,3.30
2023-02-27T14:27:25.618Z,3.20
2023-02-27T14:29:57.614Z,3.20
2023-02-27T14:32:27.452Z,3.20
2023-02-27T14:34:57.119Z,3.10
2023-02-27T14:37:27.452Z,3.10
2023-02-27T14:39:56.973Z,3.00
2023-02-27T14:42:38.365Z,3.00
2023-02-27T14:45:13.787Z,2.90
2023-02-27T14:47:42.084Z,2.80
2023-02-27T14:50:25.189Z,2.80
2023-02-27T14:52:53.194Z,2.80
2023-02-27T14:55:27.793Z,2.80
2023-02-27T14:57:58.045Z,2.80
2023-02-27T15:00:41.804Z,2.70
2023-02-27T15:03:19.875Z,2.70
2023-02-27T15:05:50.215Z,2.60
2023-02-27T15:08:21.539Z,2.60
2023-02-27T15:10:50.068Z,2.50
2023-02-27T15:13:25.949Z,2.50
2023-02-27T15:16:31.105Z,2.50
2023-02-27T15:19:02.121Z,2.40
2023-02-27T15:21:39.298Z,2.40
2023-02-27T15:24:09.224Z,2.40
2023-02-27T15:26:39.830Z,2.40
2023-02-27T15:29:09.600Z,2.40
2023-02-27T15:31:38.995Z,2.40
2023-02-27T15:34:14.938Z,2.30
2023-02-27T15:36:48.061Z,2.30
2023-02-27T15:39:19.499Z,2.30
2023-02-27T15:41:49.854Z,2.20
2023-02-27T15:44:19.701Z,2.30
2023-02-27T15:46:48.696Z,2.20
2023-02-27T15:49:19.162Z,2.20
2023-02-27T15:52:01.487Z,2.20
2023-02-27T15:54:34.018Z,2.20
2023-02-27T15:57:04.137Z,2.10
2023-02-27T15:59:36.908Z,2.10
2023-02-27T16:02:06.945Z,2.10
2023-02-27T16:04:35.751Z,2.10
2023-02-27T16:07:10.637Z,2.00
2023-02-27T16:09:39.568Z,2.00
2023-02-27T16:12:22.457Z,2.00
2023-02-27T16:14:52.932Z,2.00
2023-02-27T16:17:30.593Z,2.00
2023-02-27T16:20:02.018Z,2.00
2023-02-27T16:22:31.617Z,2.00
2023-02-27T16:25:10.184Z,2.00
2023-02-27T16:27:40.083Z,2.00
2023-02-27T16:30:13.369Z,1.90
2023-02-27T16:32:44.027Z,1.90
2023-02-27T16:35:19.009Z,1.90
2023-02-27T16:37:49.332Z,1.90
2023-02-27T16:40:20.048Z,1.80
2023-02-27T16:42:48.186Z,1.80
2023-02-27T16:45:18.514Z,1.80
2023-02-27T16:47:48.848Z,1.80
2023-02-27T16:50:21.835Z,1.80
2023-02-27T16:52:51.238Z,1.80
2023-02-27T16:55:19.443Z,1.80
2023-02-27T16:57:47.903Z,1.70
2023-02-27T17:00:18.171Z,1.70
2023-02-27T17:02:46.809Z,1.70
2023-02-27T17:05:15.348Z,1.70
2023-02-27T17:07:44.666Z,1.70
2023-02-27T17:10:17.054Z,1.60
2023-02-27T17:12:46.853Z,1.70
2023-02-27T17:15:15.048Z,1.60
2023-02-27T17:17:43.272Z,1.60
2023-02-27T17:20:13.636Z,1.60
2023-02-27T17:22:43.831Z,1.50
2023-02-27T17:25:12.656Z,1.50
2023-02-27T17:27:43.772Z,1.50
2023-02-27T17:30:13.788Z,1.40
2023-02-27T17:32:41.823Z,1.40
2023-02-27T17:35:10.482Z,1.40
2023-02-27T17:37:38.636Z,1.40
2023-02-27T17:40:12.236Z,1.40
2023-02-27T17:42:41.887Z,1.40
2023-02-27T17:45:13.310Z,1.40
2023-02-27T17:47:43.004Z,1.40
2023-02-27T17:50:11.904Z,1.40
2023-02-27T17:52:39.918Z,1.40
2023-02-27T17:55:09.570Z,1.40
2023-02-27T17:57:37.808Z,1.40
2023-02-27T18:00:09.759Z,1.30
2023-02-27T18:02:38.127Z,1.30
2023-02-27T18:05:09.095Z,1.30
2023-02-27T18:07:37.163Z,1.30
2023-02-27T18:10:06.986Z,1.30
2023-02-27T18:12:35.006Z,1.30
2023-02-27T18:15:04.095Z,1.30
2023-02-27T18:17:33.500Z,1.30
2023-02-27T18:20:01.668Z,1.30
2023-02-27T18:22:32.837Z,1.30
2023-02-27T18:25:01.004Z,1.30
2023-02-27T18:27:29.039Z,1.30
2023-02-27T18:29:57.994Z,1.30
2023-02-27T18:32:26.996Z,1.30
2023-02-27T18:34:56.381Z,1.30
2023-02-27T18:37:24.483Z,1.20
2023-02-27T18:39:54.415Z,1.20
2023-02-27T18:42:22.661Z,1.20
2023-02-27T18:44:50.644Z,1.20
2023-02-27T18:47:18.656Z,1.20
2023-02-27T18:49:46.736Z,1.20
2023-02-27T18:52:16.067Z,1.20
2023-02-27T18:54:44.251Z,1.20
2023-02-27T18:57:12.400Z,1.20
2023-02-27T18:59:41.522Z,1.20
2023-02-27T19:02:15.180Z,1.10
2023-02-27T19:04:43.359Z,1.20
2023-02-27T19:07:11.329Z,1.10
2023-02-27T19:09:40.889Z,1.10
2023-02-27T19:12:10.795Z,1.10
2023-02-27T19:14:39.092Z,1.10
2023-02-27T19:17:08.823Z,1.10
2023-02-27T19:19:37.369Z,1.10
2023-02-27T19:22:05.610Z,1.10
2023-02-27T19:24:33.890Z,1.20
2023-02-27T19:27:03.277Z,1.10
2023-02-27T19:29:31.377Z,1.10
2023-02-27T19:31:59.411Z,1.10
2023-02-27T19:34:27.421Z,1.10
2023-02-27T19:36:55.392Z,1.10
2023-02-27T19:39:23.397Z,1.10
2023-02-27T19:41:51.838Z,1.10
2023-02-27T19:44:21.573Z,1.10
2023-02-27T19:46:51.484Z,1.10
2023-02-27T19:49:19.931Z,1.10
2023-02-27T19:51:48.019Z,1.00
2023-02-27T19:54:17.416Z,1.00
2023-02-27T19:56:45.857Z,1.10
2023-02-27T19:59:14.265Z,1.10
2023-02-27T20:01:43.637Z,1.00
2023-02-27T20:04:12.717Z,1.00
2023-02-27T20:06:42.865Z,1.10
2023-02-27T20:09:14.350Z,1.00
2023-02-27T20:11:42.588Z,1.00
2023-02-27T20:14:11.069Z,1.00
2023-02-27T20:16:39.517Z,0.90
2023-02-27T20:19:11.314Z,1.00
2023-02-27T20:21:39.336Z,1.00
2023-02-27T20:24:10.076Z,0.90
2023-02-27T20:26:41.297Z,0.90
2023-02-27T20:29:11.313Z,0.90
2023-02-27T20:31:42.405Z,0.90
2023-02-27T20:34:15.745Z,0.90
2023-02-27T20:36:46.202Z,0.90
2023-02-27T20:39:14.414Z,0.90
2023-02-27T20:41:45.981Z,0.90
2023-02-27T20:44:14.553Z,0.90
2023-02-27T20:46:45.739Z,0.90
2023-02-27T20:49:20.038Z,0.90
2023-02-27T20:51:48.174Z,0.90
2023-02-27T20:54:21.065Z,1.00
2023-02-27T20:56:52.864Z,0.90
2023-02-27T20:59:22.370Z,1.00
2023-02-27T21:01:52.400Z,0.90
2023-02-27T21:04:27.676Z,0.90
2023-02-27T21:06:55.947Z,0.80
2023-02-27T21:09:24.180Z,0.90
2023-02-27T21:11:52.237Z,0.90
2023-02-27T21:14:21.231Z,0.90
2023-02-27T21:16:49.237Z,0.90
2023-02-27T21:19:19.856Z,0.90
2023-02-27T21:21:52.502Z,0.90
2023-02-27T21:24:20.633Z,0.90
2023-02-27T21:26:49.363Z,0.90
2023-02-27T21:29:19.738Z,0.90
2023-02-27T21:31:51.089Z,0.90
2023-02-27T21:34:22.123Z,0.90
2023-02-27T21:36:52.552Z,0.90
2023-02-27T21:39:22.841Z,0.90
2023-02-27T21:41:51.374Z,0.90
2023-02-27T21:44:21.113Z,0.90
2023-02-27T21:46:49.489Z,0.90
2023-02-27T21:49:19.284Z,0.90
2023-02-27T21:51:51.792Z,0.90
2023-02-27T21:54:20.624Z,0.80
2023-02-27T21:56:50.425Z,0.80
2023-02-27T21:59:20.178Z,0.80
2023-02-27T22:01:48.644Z,0.80
2023-02-27T22:04:17.910Z,0.80
2023-02-27T22:06:49.658Z,0.80
2023-02-27T22:09:19.915Z,0.80
2023-02-27T22:11:48.748Z,0.80
2023-02-27T22:14:17.020Z,0.80
2023-02-27T22:16:47.963Z,0.70
2023-02-27T22:19:19.719Z,0.80
2023-02-27T22:21:48.008Z,0.80
2023-02-27T22:24:16.047Z,0.70
2023-02-27T22:26:47.642Z,0.80
2023-02-27T22:29:16.992Z,0.70
2023-02-27T22:31:45.957Z,0.80
2023-02-27T22:34:18.068Z,0.70
2023-02-27T22:36:52.204Z,0.70
2023-02-27T22:39:21.235Z,0.70
2023-02-27T22:41:50.722Z,0.70
2023-02-27T22:44:18.894Z,0.70
2023-02-27T22:46:49.111Z,0.70
2023-02-27T22:49:19.383Z,0.70
2023-02-27T22:51:51.010Z,0.70
2023-02-27T22:54:20.874Z,0.70
2023-02-27T22:56:53.039Z,0.70
2023-02-27T22:59:22.127Z,0.70
2023-02-27T23:01:51.480Z,0.70
2023-02-27T23:04:22.018Z,0.70
2023-02-27T23:06:52.546Z,0.70
2023-02-27T23:09:22.657Z,0.70
2023-02-27T23:11:52.333Z,0.70
2023-02-27T23:14:21.204Z,0.70
2023-02-27T23:16:49.592Z,0.70
2023-02-27T23:19:19.852Z,0.70
2023-02-27T23:21:48.119Z,0.70
2023-02-27T23:24:18.751Z,0.60
2023-02-27T23:26:48.601Z,0.70
2023-02-27T23:29:18.437Z,0.70
2023-02-27T23:31:46.704Z,0.60
2023-02-27T23:34:14.904Z,0.60
2023-02-27T23:36:43.118Z,0.70
2023-02-27T23:39:11.112Z,0.60
2023-02-27T23:41:39.156Z,0.60
2023-02-27T23:44:07.270Z,0.60
2023-02-27T23:46:37.242Z,0.60
2023-02-27T23:49:05.664Z,0.60
2023-02-27T23:51:34.255Z,0.60
2023-02-27T23:54:02.340Z,0.60
2023-02-27T23:56:31.703Z,0.50
2023-02-27T23:59:01.693Z,0.50
